sensor_id;sensor_type;location;lat;lon;timestamp;temperature;humidity
14097;DHT22;7125;48.106;11.544;2023-05-07T00:01:33;11.30;99.90
14097;DHT22;7125;48.106;11.544;2023-05-07T00:04:01;11.30;99.90
14097;DHT22;7125;48.106;11.544;2023-05-07T00:06:28;11.30;99.90
14097;DHT22;7125;48.106;11.544;2023-05-07T00:08:57;11.30;99.90
14097;DHT22;7125;48.106;11.544;2023-05-07T00:11:25;11.30;99.90
14097;DHT22;7125;48.106;11.544;2023-05-07T00:13:56;11.30;99.90
14097;DHT22;7125;48.106;11.544;2023-05-07T00:16:24;11.30;99.90
14097;DHT22;7125;48.106;11.544;2023-05-07T00:18:52;11.30;99.90
14097;DHT22;7125;48.106;11.544;2023-05-07T00:21:20;11.20;99.90
14097;DHT22;7125;48.106;11.544;2023-05-07T00:23:48;11.20;99.90
14097;DHT22;7125;48.106;11.544;2023-05-07T00:26:16;11.20;99.90
14097;DHT22;7125;48.106;11.544;2023-05-07T00:28:46;11.10;99.90
14097;DHT22;7125;48.106;11.544;2023-05-07T00:37:41;11.10;99.90
14097;DHT22;7125;48.106;11.544;2023-05-07T00:40:22;11.10;99.90
14097;DHT22;7125;48.106;11.544;2023-05-07T00:42:50;11.10;99.90
14097;DHT22;7125;48.106;11.544;2023-05-07T00:45:24;11.10;99.90
14097;DHT22;7125;48.106;11.544;2023-05-07T00:47:54;11.10;99.90
14097;DHT22;7125;48.106;11.544;2023-05-07T00:50:24;11.10;99.90
14097;DHT22;7125;48.106;11.544;2023-05-07T00:53:22;11.00;99.90
14097;DHT22;7125;48.106;11.544;2023-05-07T00:55:50;11.00;99.90
14097;DHT22;7125;48.106;11.544;2023-05-07T00:58:17;11.00;99.90
14097;DHT22;7125;48.106;11.544;2023-05-07T01:00:49;10.90;99.90
14097;DHT22;7125;48.106;11.544;2023-05-07T01:03:17;11.00;99.90
14097;DHT22;7125;48.106;11.544;2023-05-07T01:05:53;10.90;99.90
14097;DHT22;7125;48.106;11.544;2023-05-07T01:14:06;10.90;99.90
14097;DHT22;7125;48.106;11.544;2023-05-07T01:16:34;10.90;99.90
14097;DHT22;7125;48.106;11.544;2023-05-07T01:19:02;11.00;99.90
14097;DHT22;7125;48.106;11.544;2023-05-07T01:21:33;11.00;99.90
14097;DHT22;7125;48.106;11.544;2023-05-07T01:24:02;11.00;99.90
14097;DHT22;7125;48.106;11.544;2023-05-07T01:26:32;11.00;99.90
14097;DHT22;7125;48.106;11.544;2023-05-07T01:28:59;11.00;99.90
14097;DHT22;7125;48.106;11.544;2023-05-07T01:31:27;11.00;99.90
14097;DHT22;7125;48.106;11.544;2023-05-07T01:33:54;10.90;99.90
14097;DHT22;7125;48.106;11.544;2023-05-07T01:36:23;11.00;99.90
14097;DHT22;7125;48.106;11.544;2023-05-07T01:38:53;11.00;99.90
14097;DHT22;7125;48.106;11.544;2023-05-07T01:41:24;11.00;99.90
14097;DHT22;7125;48.106;11.544;2023-05-07T01:43:54;10.90;99.90
14097;DHT22;7125;48.106;11.544;2023-05-07T01:46:22;10.90;99.90
14097;DHT22;7125;48.106;11.544;2023-05-07T01:48:50;10.90;99.90
14097;DHT22;7125;48.106;11.544;2023-05-07T01:51:17;10.90;99.90
14097;DHT22;7125;48.106;11.544;2023-05-07T01:53:47;10.90;99.90
14097;DHT22;7125;48.106;11.544;2023-05-07T01:56:17;10.90;99.90
14097;DHT22;7125;48.106;11.544;2023-05-07T01:58:49;10.90;99.90
14097;DHT22;7125;48.106;11.544;2023-05-07T02:01:18;10.80;99.90
14097;DHT22;7125;48.106;11.544;2023-05-07T02:03:47;10.80;99.90
14097;DHT22;7125;48.106;11.544;2023-05-07T02:06:21;10.80;99.90
14097;DHT22;7125;48.106;11.544;2023-05-07T02:08:51;10.80;99.90
14097;DHT22;7125;48.106;11.544;2023-05-07T02:11:21;10.80;99.90
14097;DHT22;7125;48.106;11.544;2023-05-07T02:13:49;10.80;99.90
14097;DHT22;7125;48.106;11.544;2023-05-07T02:16:17;10.80;99.90
14097;DHT22;7125;48.106;11.544;2023-05-07T02:18:46;10.80;99.90
14097;DHT22;7125;48.106;11.544;2023-05-07T02:21:13;10.80;99.90
14097;DHT22;7125;48.106;11.544;2023-05-07T02:23:43;10.80;99.90
14097;DHT22;7125;48.106;11.544;2023-05-07T02:26:11;10.70;99.90
14097;DHT22;7125;48.106;11.544;2023-05-07T02:28:38;10.70;99.90
14097;DHT22;7125;48.106;11.544;2023-05-07T02:31:07;10.70;99.90
14097;DHT22;7125;48.106;11.544;2023-05-07T02:33:35;10.70;99.90
14097;DHT22;7125;48.106;11.544;2023-05-07T02:36:06;10.70;99.90
14097;DHT22;7125;48.106;11.544;2023-05-07T02:38:35;10.60;99.90
14097;DHT22;7125;48.106;11.544;2023-05-07T09:34:58;21.20;99.20
14097;DHT22;7125;48.106;11.544;2023-05-07T09:37:27;21.10;99.90
14097;DHT22;7125;48.106;11.544;2023-05-07T09:39:54;21.10;99.90
14097;DHT22;7125;48.106;11.544;2023-05-07T09:42:29;21.20;99.90
14097;DHT22;7125;48.106;11.544;2023-05-07T09:44:59;21.20;99.90
14097;DHT22;7125;48.106;11.544;2023-05-07T09:47:36;21.30;99.90
14097;DHT22;7125;48.106;11.544;2023-05-07T09:50:09;21.50;98.70
14097;DHT22;7125;48.106;11.544;2023-05-07T09:52:39;21.60;99.50
14097;DHT22;7125;48.106;11.544;2023-05-07T09:55:10;21.80;98.70
14097;DHT22;7125;48.106;11.544;2023-05-07T09:57:39;21.80;97.90
14097;DHT22;7125;48.106;11.544;2023-05-07T10:00:09;21.90;98.40
14097;DHT22;7125;48.106;11.544;2023-05-07T10:02:48;22.10;99.00
14097;DHT22;7125;48.106;11.544;2023-05-07T10:05:25;22.20;98.20
14097;DHT22;7125;48.106;11.544;2023-05-07T10:07:56;22.10;96.60
14097;DHT22;7125;48.106;11.544;2023-05-07T10:10:25;22.20;96.30
14097;DHT22;7125;48.106;11.544;2023-05-07T10:12:54;22.40;95.20
14097;DHT22;7125;48.106;11.544;2023-05-07T10:15:29;22.40;95.00
14097;DHT22;7125;48.106;11.544;2023-05-07T10:17:58;22.50;95.50
14097;DHT22;7125;48.106;11.544;2023-05-07T10:20:28;22.40;96.20
14097;DHT22;7125;48.106;11.544;2023-05-07T10:23:02;22.30;96.20
14097;DHT22;7125;48.106;11.544;2023-05-07T10:25:38;22.40;96.60
14097;DHT22;7125;48.106;11.544;2023-05-07T10:28:14;22.40;96.60
14097;DHT22;7125;48.106;11.544;2023-05-07T10:30:52;22.50;95.00
14097;DHT22;7125;48.106;11.544;2023-05-07T10:33:29;22.40;95.50
14097;DHT22;7125;48.106;11.544;2023-05-07T10:36:03;22.50;95.40
14097;DHT22;7125;48.106;11.544;2023-05-07T10:38:34;22.60;95.10
14097;DHT22;7125;48.106;11.544;2023-05-07T10:41:01;22.70;94.40
14097;DHT22;7125;48.106;11.544;2023-05-07T10:43:43;22.70;93.80
14097;DHT22;7125;48.106;11.544;2023-05-07T10:46:29;22.60;95.00
14097;DHT22;7125;48.106;11.544;2023-05-07T10:49:18;22.60;94.80
14097;DHT22;7125;48.106;11.544;2023-05-07T10:52:13;22.60;94.20
14097;DHT22;7125;48.106;11.544;2023-05-07T10:55:20;22.70;93.90
14097;DHT22;7125;48.106;11.544;2023-05-07T10:58:29;22.70;92.70
14097;DHT22;7125;48.106;11.544;2023-05-07T11:01:07;22.80;93.50
14097;DHT22;7125;48.106;11.544;2023-05-07T11:04:12;22.70;92.70
14097;DHT22;7125;48.106;11.544;2023-05-07T11:06:40;22.70;91.60
14097;DHT22;7125;48.106;11.544;2023-05-07T11:09:11;22.50;92.00
14097;DHT22;7125;48.106;11.544;2023-05-07T11:12:05;22.40;92.90
14097;DHT22;7125;48.106;11.544;2023-05-07T11:14:58;22.40;91.20
14097;DHT22;7125;48.106;11.544;2023-05-07T11:17:55;22.30;91.00
14097;DHT22;7125;48.106;11.544;2023-05-07T11:20:55;22.30;91.20
14097;DHT22;7125;48.106;11.544;2023-05-07T11:23:59;22.30;91.20
14097;DHT22;7125;48.106;11.544;2023-05-07T11:26:52;22.50;92.10
14097;DHT22;7125;48.106;11.544;2023-05-07T11:29:21;22.70;93.00
14097;DHT22;7125;48.106;11.544;2023-05-07T11:31:55;22.90;92.50
14097;DHT22;7125;48.106;11.544;2023-05-07T11:34:30;23.00;93.00
14097;DHT22;7125;48.106;11.544;2023-05-07T11:36:59;23.30;93.80
14097;DHT22;7125;48.106;11.544;2023-05-07T11:40:02;23.50;92.00
14097;DHT22;7125;48.106;11.544;2023-05-07T11:42:33;23.70;92.10
14097;DHT22;7125;48.106;11.544;2023-05-07T11:45:06;23.70;91.80
14097;DHT22;7125;48.106;11.544;2023-05-07T11:47:34;23.60;92.40
14097;DHT22;7125;48.106;11.544;2023-05-07T11:50:10;23.40;92.40
14097;DHT22;7125;48.106;11.544;2023-05-07T11:52:39;23.30;92.00
14097;DHT22;7125;48.106;11.544;2023-05-07T11:55:24;23.30;92.00
14097;DHT22;7125;48.106;11.544;2023-05-07T11:57:53;23.40;92.00
14097;DHT22;7125;48.106;11.544;2023-05-07T12:00:22;23.50;92.10
14097;DHT22;7125;48.106;11.544;2023-05-07T12:02:50;23.60;92.90
14097;DHT22;7125;48.106;11.544;2023-05-07T12:05:19;23.60;91.90
14097;DHT22;7125;48.106;11.544;2023-05-07T12:07:47;23.60;91.90
14097;DHT22;7125;48.106;11.544;2023-05-07T12:10:17;23.80;92.10
14097;DHT22;7125;48.106;11.544;2023-05-07T12:12:54;23.80;93.10
14097;DHT22;7125;48.106;11.544;2023-05-07T12:15:27;23.90;92.70
14097;DHT22;7125;48.106;11.544;2023-05-07T12:18:01;24.10;91.80
14097;DHT22;7125;48.106;11.544;2023-05-07T12:20:31;24.10;91.00
14097;DHT22;7125;48.106;11.544;2023-05-07T12:22:58;24.10;91.00
14097;DHT22;7125;48.106;11.544;2023-05-07T12:25:29;24.10;91.70
14097;DHT22;7125;48.106;11.544;2023-05-07T12:28:13;24.00;90.90
14097;DHT22;7125;48.106;11.544;2023-05-07T12:30:42;23.90;91.20
14097;DHT22;7125;48.106;11.544;2023-05-07T12:33:10;23.90;90.80
14097;DHT22;7125;48.106;11.544;2023-05-07T12:35:40;23.90;91.10
14097;DHT22;7125;48.106;11.544;2023-05-07T12:38:08;24.00;92.00
14097;DHT22;7125;48.106;11.544;2023-05-07T12:40:40;23.90;91.10
14097;DHT22;7125;48.106;11.544;2023-05-07T12:43:15;23.90;91.10
14097;DHT22;7125;48.106;11.544;2023-05-07T12:45:53;23.80;90.00
14097;DHT22;7125;48.106;11.544;2023-05-07T12:48:28;23.70;91.10
14097;DHT22;7125;48.106;11.544;2023-05-07T12:50:59;23.70;90.60
14097;DHT22;7125;48.106;11.544;2023-05-07T12:53:27;23.70;89.50
14097;DHT22;7125;48.106;11.544;2023-05-07T12:55:59;23.60;89.80
14097;DHT22;7125;48.106;11.544;2023-05-07T12:58:32;23.60;90.70
14097;DHT22;7125;48.106;11.544;2023-05-07T13:01:08;23.80;90.30
14097;DHT22;7125;48.106;11.544;2023-05-07T13:03:39;23.90;89.40
14097;DHT22;7125;48.106;11.544;2023-05-07T13:06:08;24.00;88.00
14097;DHT22;7125;48.106;11.544;2023-05-07T13:08:39;24.00;90.00
14097;DHT22;7125;48.106;11.544;2023-05-07T13:11:11;24.00;89.50
14097;DHT22;7125;48.106;11.544;2023-05-07T13:13:48;24.00;87.50
14097;DHT22;7125;48.106;11.544;2023-05-07T13:16:26;24.00;88.00
14097;DHT22;7125;48.106;11.544;2023-05-07T13:19:06;24.10;86.80
14097;DHT22;7125;48.106;11.544;2023-05-07T13:21:35;24.00;85.90
14097;DHT22;7125;48.106;11.544;2023-05-07T13:24:13;24.00;85.00
14097;DHT22;7125;48.106;11.544;2023-05-07T13:26:40;24.10;86.30
14097;DHT22;7125;48.106;11.544;2023-05-07T13:29:17;24.20;85.40
14097;DHT22;7125;48.106;11.544;2023-05-07T13:31:52;24.30;82.50
14097;DHT22;7125;48.106;11.544;2023-05-07T13:34:21;24.40;85.30
14097;DHT22;7125;48.106;11.544;2023-05-07T13:37:04;24.30;81.70
14097;DHT22;7125;48.106;11.544;2023-05-07T13:39:41;24.40;84.20
14097;DHT22;7125;48.106;11.544;2023-05-07T13:42:11;24.50;81.90
14097;DHT22;7125;48.106;11.544;2023-05-07T13:44:49;24.60;81.80
14097;DHT22;7125;48.106;11.544;2023-05-07T13:47:29;24.60;80.20
14097;DHT22;7125;48.106;11.544;2023-05-07T13:50:07;24.80;80.20
14097;DHT22;7125;48.106;11.544;2023-05-07T13:52:36;25.00;81.30
14097;DHT22;7125;48.106;11.544;2023-05-07T13:55:07;25.10;79.40
14097;DHT22;7125;48.106;11.544;2023-05-07T13:57:35;25.10;79.20
14097;DHT22;7125;48.106;11.544;2023-05-07T14:00:06;25.20;77.80
14097;DHT22;7125;48.106;11.544;2023-05-07T14:02:41;25.30;78.30
14097;DHT22;7125;48.106;11.544;2023-05-07T14:05:10;25.50;77.80
14097;DHT22;7125;48.106;11.544;2023-05-07T14:07:40;25.80;73.70
14097;DHT22;7125;48.106;11.544;2023-05-07T14:10:14;25.80;74.50
14097;DHT22;7125;48.106;11.544;2023-05-07T14:12:43;25.60;74.50
14097;DHT22;7125;48.106;11.544;2023-05-07T14:15:18;25.50;74.50
14097;DHT22;7125;48.106;11.544;2023-05-07T14:17:48;25.30;76.80
14097;DHT22;7125;48.106;11.544;2023-05-07T14:20:24;25.00;76.10
14097;DHT22;7125;48.106;11.544;2023-05-07T14:23:19;24.80;77.10
14097;DHT22;7125;48.106;11.544;2023-05-07T14:25:53;24.50;78.70
14097;DHT22;7125;48.106;11.544;2023-05-07T14:28:23;24.20;78.60
14097;DHT22;7125;48.106;11.544;2023-05-07T14:30:52;24.00;79.70
14097;DHT22;7125;48.106;11.544;2023-05-07T14:33:20;23.90;79.90
14097;DHT22;7125;48.106;11.544;2023-05-07T14:35:48;23.70;79.70
14097;DHT22;7125;48.106;11.544;2023-05-07T14:38:15;23.60;79.80
14097;DHT22;7125;48.106;11.544;2023-05-07T14:40:44;23.50;80.80
14097;DHT22;7125;48.106;11.544;2023-05-07T14:43:14;23.40;80.80
14097;DHT22;7125;48.106;11.544;2023-05-07T14:45:43;23.40;81.60
14097;DHT22;7125;48.106;11.544;2023-05-07T14:48:15;23.50;81.20
14097;DHT22;7125;48.106;11.544;2023-05-07T14:50:47;23.60;81.90
14097;DHT22;7125;48.106;11.544;2023-05-07T14:53:20;23.80;82.70
14097;DHT22;7125;48.106;11.544;2023-05-07T16:04:15;20.80;90.70
14097;DHT22;7125;48.106;11.544;2023-05-07T16:06:47;20.80;90.70
14097;DHT22;7125;48.106;11.544;2023-05-07T16:09:37;20.70;90.70
14097;DHT22;7125;48.106;11.544;2023-05-07T16:12:06;20.70;90.60
14097;DHT22;7125;48.106;11.544;2023-05-07T16:14:34;20.60;90.80
14097;DHT22;7125;48.106;11.544;2023-05-07T16:17:02;20.60;90.40
14097;DHT22;7125;48.106;11.544;2023-05-07T16:19:49;20.60;90.80
14097;DHT22;7125;48.106;11.544;2023-05-07T16:22:21;20.50;90.60
14097;DHT22;7125;48.106;11.544;2023-05-07T16:24:51;20.50;90.40
14097;DHT22;7125;48.106;11.544;2023-05-07T16:27:25;20.40;90.40
14097;DHT22;7125;48.106;11.544;2023-05-07T16:29:53;20.40;90.30
14097;DHT22;7125;48.106;11.544;2023-05-07T16:32:25;20.40;90.60
14097;DHT22;7125;48.106;11.544;2023-05-07T16:34:59;20.40;90.50
14097;DHT22;7125;48.106;11.544;2023-05-07T16:37:32;20.50;90.60
14097;DHT22;7125;48.106;11.544;2023-05-07T16:40:02;20.50;90.00
14097;DHT22;7125;48.106;11.544;2023-05-07T16:42:36;20.50;89.90
14097;DHT22;7125;48.106;11.544;2023-05-07T16:45:03;20.40;89.40
14097;DHT22;7125;48.106;11.544;2023-05-07T16:47:32;20.40;90.10
14097;DHT22;7125;48.106;11.544;2023-05-07T16:50:11;20.30;90.30
14097;DHT22;7125;48.106;11.544;2023-05-07T16:52:52;20.30;90.70
14097;DHT22;7125;48.106;11.544;2023-05-07T16:55:19;20.30;90.00
14097;DHT22;7125;48.106;11.544;2023-05-07T16:57:47;20.20;90.20
14097;DHT22;7125;48.106;11.544;2023-05-07T17:00:17;20.20;90.00
14097;DHT22;7125;48.106;11.544;2023-05-07T17:02:47;20.10;90.00
14097;DHT22;7125;48.106;11.544;2023-05-07T17:05:20;20.00;90.50
14097;DHT22;7125;48.106;11.544;2023-05-07T17:07:48;20.00;90.70
14097;DHT22;7125;48.106;11.544;2023-05-07T17:10:17;19.90;90.50
14097;DHT22;7125;48.106;11.544;2023-05-07T17:12:45;19.90;90.50
14097;DHT22;7125;48.106;11.544;2023-05-07T17:15:28;19.80;90.60
14097;DHT22;7125;48.106;11.544;2023-05-07T17:18:00;19.70;91.00
14097;DHT22;7125;48.106;11.544;2023-05-07T17:20:33;19.70;90.90
14097;DHT22;7125;48.106;11.544;2023-05-07T17:23:01;19.70;91.50
14097;DHT22;7125;48.106;11.544;2023-05-07T17:25:31;19.60;91.20
14097;DHT22;7125;48.106;11.544;2023-05-07T17:27:58;19.50;91.60
14097;DHT22;7125;48.106;11.544;2023-05-07T17:30:25;19.50;91.90
14097;DHT22;7125;48.106;11.544;2023-05-07T17:32:52;19.40;91.90
14097;DHT22;7125;48.106;11.544;2023-05-07T17:35:23;19.30;91.70
14097;DHT22;7125;48.106;11.544;2023-05-07T17:37:55;19.40;91.50
14097;DHT22;7125;48.106;11.544;2023-05-07T17:40:24;19.30;91.70
14097;DHT22;7125;48.106;11.544;2023-05-07T17:42:58;19.30;91.80
14097;DHT22;7125;48.106;11.544;2023-05-07T17:45:32;19.20;91.90
14097;DHT22;7125;48.106;11.544;2023-05-07T17:48:04;19.10;91.80
14097;DHT22;7125;48.106;11.544;2023-05-07T17:50:32;19.10;92.30
14097;DHT22;7125;48.106;11.544;2023-05-07T17:53:09;19.00;93.10
14097;DHT22;7125;48.106;11.544;2023-05-07T17:55:41;18.90;92.90
14097;DHT22;7125;48.106;11.544;2023-05-07T17:58:17;18.90;92.80
14097;DHT22;7125;48.106;11.544;2023-05-07T18:00:47;18.80;92.60
14097;DHT22;7125;48.106;11.544;2023-05-07T18:03:26;18.80;92.40
14097;DHT22;7125;48.106;11.544;2023-05-07T18:05:57;18.80;93.00
14097;DHT22;7125;48.106;11.544;2023-05-07T18:08:51;18.70;93.40
14097;DHT22;7125;48.106;11.544;2023-05-07T18:11:46;18.60;93.10
14097;DHT22;7125;48.106;11.544;2023-05-07T18:14:14;18.60;93.80
14097;DHT22;7125;48.106;11.544;2023-05-07T18:16:43;18.50;94.10
14097;DHT22;7125;48.106;11.544;2023-05-07T18:19:19;18.40;94.20
14097;DHT22;7125;48.106;11.544;2023-05-07T18:21:52;18.40;94.30
14097;DHT22;7125;48.106;11.544;2023-05-07T18:24:37;18.30;94.50
14097;DHT22;7125;48.106;11.544;2023-05-07T18:27:08;18.20;94.90
14097;DHT22;7125;48.106;11.544;2023-05-07T18:29:45;18.20;95.10
14097;DHT22;7125;48.106;11.544;2023-05-07T18:32:15;18.10;95.20
14097;DHT22;7125;48.106;11.544;2023-05-07T18:34:44;18.10;95.30
14097;DHT22;7125;48.106;11.544;2023-05-07T18:37:11;18.00;95.40
14097;DHT22;7125;48.106;11.544;2023-05-07T18:39:44;18.00;95.50
14097;DHT22;7125;48.106;11.544;2023-05-07T18:42:19;17.90;95.70
14097;DHT22;7125;48.106;11.544;2023-05-07T18:44:50;17.90;96.00
14097;DHT22;7125;48.106;11.544;2023-05-07T18:47:17;17.90;95.90
14097;DHT22;7125;48.106;11.544;2023-05-07T18:49:49;17.90;96.10
14097;DHT22;7125;48.106;11.544;2023-05-07T18:52:16;17.80;96.00
14097;DHT22;7125;48.106;11.544;2023-05-07T18:54:48;17.80;95.60
14097;DHT22;7125;48.106;11.544;2023-05-07T18:57:15;17.80;95.70
14097;DHT22;7125;48.106;11.544;2023-05-07T18:59:46;17.80;96.10
14097;DHT22;7125;48.106;11.544;2023-05-07T19:02:14;17.70;96.30
14097;DHT22;7125;48.106;11.544;2023-05-07T19:04:41;17.70;96.40
14097;DHT22;7125;48.106;11.544;2023-05-07T19:07:10;17.70;96.80
14097;DHT22;7125;48.106;11.544;2023-05-07T19:09:42;17.70;96.80
14097;DHT22;7125;48.106;11.544;2023-05-07T19:12:13;17.60;96.80
14097;DHT22;7125;48.106;11.544;2023-05-07T19:14:41;17.60;96.80
14097;DHT22;7125;48.106;11.544;2023-05-07T19:17:11;17.60;96.80
14097;DHT22;7125;48.106;11.544;2023-05-07T19:19:48;17.60;96.80
14097;DHT22;7125;48.106;11.544;2023-05-07T19:22:17;17.60;96.70
14097;DHT22;7125;48.106;11.544;2023-05-07T19:24:47;17.60;96.80
14097;DHT22;7125;48.106;11.544;2023-05-07T19:27:24;17.50;96.70
14097;DHT22;7125;48.106;11.544;2023-05-07T19:29:53;17.60;96.80
14097;DHT22;7125;48.106;11.544;2023-05-07T19:32:24;17.50;97.20
14097;DHT22;7125;48.106;11.544;2023-05-07T19:34:52;17.50;97.40
14097;DHT22;7125;48.106;11.544;2023-05-07T19:37:20;17.50;97.90
14097;DHT22;7125;48.106;11.544;2023-05-07T19:39:51;17.40;98.40
14097;DHT22;7125;48.106;11.544;2023-05-07T19:42:24;17.30;98.80
14097;DHT22;7125;48.106;11.544;2023-05-07T19:44:52;17.30;99.20
14097;DHT22;7125;48.106;11.544;2023-05-07T19:47:19;17.20;98.60
14097;DHT22;7125;48.106;11.544;2023-05-07T19:49:50;17.20;98.40
14097;DHT22;7125;48.106;11.544;2023-05-07T19:52:18;17.20;98.70
14097;DHT22;7125;48.106;11.544;2023-05-07T19:54:46;17.20;98.90
14097;DHT22;7125;48.106;11.544;2023-05-07T19:57:17;17.20;99.30
14097;DHT22;7125;48.106;11.544;2023-05-07T20:00:08;17.20;99.60
14097;DHT22;7125;48.106;11.544;2023-05-07T20:02:42;17.20;99.90
14097;DHT22;7125;48.106;11.544;2023-05-07T20:05:12;17.20;99.90
14097;DHT22;7125;48.106;11.544;2023-05-07T20:07:39;17.20;99.90
14097;DHT22;7125;48.106;11.544;2023-05-07T20:10:08;17.20;99.90
14097;DHT22;7125;48.106;11.544;2023-05-07T20:12:35;17.20;99.90
14097;DHT22;7125;48.106;11.544;2023-05-07T20:15:07;17.20;99.90
14097;DHT22;7125;48.106;11.544;2023-05-07T20:17:34;17.20;99.90
14097;DHT22;7125;48.106;11.544;2023-05-07T20:20:01;17.20;99.90
14097;DHT22;7125;48.106;11.544;2023-05-07T20:22:29;17.10;99.90
14097;DHT22;7125;48.106;11.544;2023-05-07T20:24:57;17.10;99.90
14097;DHT22;7125;48.106;11.544;2023-05-07T20:27:24;17.10;99.90
14097;DHT22;7125;48.106;11.544;2023-05-07T20:29:52;17.10;99.90
14097;DHT22;7125;48.106;11.544;2023-05-07T20:32:21;17.00;99.90
14097;DHT22;7125;48.106;11.544;2023-05-07T20:34:55;17.00;99.90
14097;DHT22;7125;48.106;11.544;2023-05-07T20:37:25;16.90;99.90
14097;DHT22;7125;48.106;11.544;2023-05-07T20:39:54;16.90;99.90
14097;DHT22;7125;48.106;11.544;2023-05-07T20:42:24;16.90;99.90
14097;DHT22;7125;48.106;11.544;2023-05-07T20:44:54;16.80;99.90
14097;DHT22;7125;48.106;11.544;2023-05-07T20:47:30;16.80;99.90
14097;DHT22;7125;48.106;11.544;2023-05-07T20:50:00;16.80;99.90
14097;DHT22;7125;48.106;11.544;2023-05-07T20:52:41;16.80;99.90
14097;DHT22;7125;48.106;11.544;2023-05-07T20:55:09;16.70;99.90
14097;DHT22;7125;48.106;11.544;2023-05-07T20:57:39;16.70;99.90
14097;DHT22;7125;48.106;11.544;2023-05-07T21:00:07;16.70;99.90
14097;DHT22;7125;48.106;11.544;2023-05-07T21:02:36;16.60;99.90
14097;DHT22;7125;48.106;11.544;2023-05-07T21:05:05;16.60;99.90
14097;DHT22;7125;48.106;11.544;2023-05-07T21:07:36;16.60;99.90
14097;DHT22;7125;48.106;11.544;2023-05-07T21:10:10;16.60;99.90
14097;DHT22;7125;48.106;11.544;2023-05-07T21:12:38;16.50;99.90
14097;DHT22;7125;48.106;11.544;2023-05-07T21:15:07;16.50;99.90
14097;DHT22;7125;48.106;11.544;2023-05-07T21:17:41;16.40;99.90
14097;DHT22;7125;48.106;11.544;2023-05-07T21:20:09;16.40;99.90
14097;DHT22;7125;48.106;11.544;2023-05-07T21:22:36;16.40;99.90
14097;DHT22;7125;48.106;11.544;2023-05-07T21:25:05;16.30;99.90
14097;DHT22;7125;48.106;11.544;2023-05-07T21:27:33;16.30;99.90
14097;DHT22;7125;48.106;11.544;2023-05-07T21:30:00;16.30;99.90
14097;DHT22;7125;48.106;11.544;2023-05-07T21:32:31;16.20;99.90
14097;DHT22;7125;48.106;11.544;2023-05-07T21:35:02;16.20;99.90
14097;DHT22;7125;48.106;11.544;2023-05-07T21:37:43;16.20;99.90
14097;DHT22;7125;48.106;11.544;2023-05-07T21:40:11;16.10;99.90
14097;DHT22;7125;48.106;11.544;2023-05-07T21:42:39;16.10;99.90
14097;DHT22;7125;48.106;11.544;2023-05-07T21:45:08;16.10;99.90
14097;DHT22;7125;48.106;11.544;2023-05-07T21:47:37;16.10;99.90
14097;DHT22;7125;48.106;11.544;2023-05-07T21:50:17;16.00;99.90
14097;DHT22;7125;48.106;11.544;2023-05-07T21:52:49;16.00;99.90
14097;DHT22;7125;48.106;11.544;2023-05-07T21:55:17;16.00;99.90
14097;DHT22;7125;48.106;11.544;2023-05-07T21:57:46;16.00;99.90
14097;DHT22;7125;48.106;11.544;2023-05-07T22:00:14;15.90;99.90
14097;DHT22;7125;48.106;11.544;2023-05-07T22:02:42;15.90;99.90
14097;DHT22;7125;48.106;11.544;2023-05-07T22:05:11;15.90;99.90
14097;DHT22;7125;48.106;11.544;2023-05-07T22:07:44;15.90;99.90
14097;DHT22;7125;48.106;11.544;2023-05-07T22:10:14;15.80;99.90
14097;DHT22;7125;48.106;11.544;2023-05-07T22:12:46;15.80;99.90
14097;DHT22;7125;48.106;11.544;2023-05-07T22:15:13;15.80;99.90
14097;DHT22;7125;48.106;11.544;2023-05-07T22:17:58;15.70;99.90
14097;DHT22;7125;48.106;11.544;2023-05-07T22:20:28;15.70;99.90
14097;DHT22;7125;48.106;11.544;2023-05-07T22:22:56;15.60;99.90
14097;DHT22;7125;48.106;11.544;2023-05-07T22:25:24;15.60;99.90
14097;DHT22;7125;48.106;11.544;2023-05-07T22:27:53;15.50;99.90
14097;DHT22;7125;48.106;11.544;2023-05-07T22:30:22;15.50;99.90
14097;DHT22;7125;48.106;11.544;2023-05-07T22:32:50;15.40;99.90
14097;DHT22;7125;48.106;11.544;2023-05-07T22:35:24;15.40;99.90
14097;DHT22;7125;48.106;11.544;2023-05-07T22:37:53;15.40;99.90
14097;DHT22;7125;48.106;11.544;2023-05-07T22:40:21;15.30;99.90
14097;DHT22;7125;48.106;11.544;2023-05-07T22:42:49;15.30;99.90
14097;DHT22;7125;48.106;11.544;2023-05-07T22:45:18;15.20;99.90
14097;DHT22;7125;48.106;11.544;2023-05-07T22:47:48;15.20;99.90
14097;DHT22;7125;48.106;11.544;2023-05-07T22:50:16;15.20;99.90
14097;DHT22;7125;48.106;11.544;2023-05-07T22:52:44;15.20;99.90
14097;DHT22;7125;48.106;11.544;2023-05-07T22:55:14;15.20;99.90
14097;DHT22;7125;48.106;11.544;2023-05-07T22:57:42;15.10;99.90
14097;DHT22;7125;48.106;11.544;2023-05-07T23:00:10;15.10;99.90
14097;DHT22;7125;48.106;11.544;2023-05-07T23:02:38;15.10;99.90
14097;DHT22;7125;48.106;11.544;2023-05-07T23:05:07;15.10;99.90
14097;DHT22;7125;48.106;11.544;2023-05-07T23:07:34;15.00;99.90
14097;DHT22;7125;48.106;11.544;2023-05-07T23:10:08;15.00;99.90
14097;DHT22;7125;48.106;11.544;2023-05-07T23:12:38;15.00;99.90
14097;DHT22;7125;48.106;11.544;2023-05-07T23:15:06;15.00;99.90
14097;DHT22;7125;48.106;11.544;2023-05-07T23:17:34;15.00;99.90
14097;DHT22;7125;48.106;11.544;2023-05-07T23:20:03;15.00;99.90
14097;DHT22;7125;48.106;11.544;2023-05-07T23:22:31;14.90;99.90
14097;DHT22;7125;48.106;11.544;2023-05-07T23:24:59;14.90;99.90
14097;DHT22;7125;48.106;11.544;2023-05-07T23:27:29;14.90;99.90
14097;DHT22;7125;48.106;11.544;2023-05-07T23:30:00;14.80;99.90
14097;DHT22;7125;48.106;11.544;2023-05-07T23:32:30;14.80;99.90
14097;DHT22;7125;48.106;11.544;2023-05-07T23:35:00;14.80;99.90
14097;DHT22;7125;48.106;11.544;2023-05-07T23:37:28;14.80;99.90
14097;DHT22;7125;48.106;11.544;2023-05-07T23:39:56;14.80;99.90
14097;DHT22;7125;48.106;11.544;2023-05-07T23:42:24;14.80;99.90
14097;DHT22;7125;48.106;11.544;2023-05-07T23:44:52;14.80;99.90
14097;DHT22;7125;48.106;11.544;2023-05-07T23:47:22;14.80;99.90
14097;DHT22;7125;48.106;11.544;2023-05-07T23:49:51;14.80;99.90
14097;DHT22;7125;48.106;11.544;2023-05-07T23:52:20;14.80;99.90
14097;DHT22;7125;48.106;11.544;2023-05-07T23:54:47;14.70;99.90
14097;DHT22;7125;48.106;11.544;2023-05-07T23:57:14;14.70;99.90
14097;DHT22;7125;48.106;11.544;2023-05-07T23:59:46;14.70;99.90
